Flight Track Log - Related Links

Times and Time Zones

All times are in EDT time to prevent confusion due to time zone crossing. See the CDG1158 flight status page for this flight to view local times or setup timezone preferences in your user account.

Time Position Orientation Groundspeed Altitude Reporting Facility
EDT Latitude Longitude Course Direction KTS MPH feet Rate Location/Type
Sun 09:59:00 PM 39.4122 116.7202 171° South  Level Estimated
Sun 10:00:00 PM 39.3008 116.7425 171° South  Level Estimated
Sun 10:01:00 PM 39.2240 116.7579 171° South  Level Estimated
Sun 10:02:00 PM 39.1471 116.7733 171° South  Level Estimated
Sun 10:03:00 PM 39.0702 116.7886 171° South  Level Estimated
Sun 10:04:00 PM 38.9933 116.8039 171° South  Level Estimated
Sun 10:05:00 PM 38.9164 116.8192 171° South  Level Estimated
Sun 10:06:00 PM 38.8396 116.8344 171° South  Level Estimated
Sun 10:07:00 PM 38.7627 116.8496 171° South  Level Estimated
Sun 10:08:00 PM 38.6858 116.8647 171° South  Level Estimated
Sun 10:09:00 PM 38.6089 116.8799 171° South  Level Estimated
Sun 10:10:00 PM 38.5320 116.8950 171° South  Level Estimated
Sun 10:11:00 PM 38.4551 116.9100 171° South  Level Estimated
Sun 10:12:00 PM 38.3782 116.9250 171° South  Level Estimated
Sun 10:13:00 PM 38.3013 116.9400 171° South  Level Estimated
Sun 10:14:00 PM 38.2244 116.9550 171° South  Level Estimated
Sun 10:15:00 PM 38.1475 116.9699 171° South  Level Estimated
Sun 10:16:00 PM 38.0706 116.9848 171° South  Level Estimated
Sun 10:17:00 PM 37.9936 116.9997 171° South  Level Estimated
Sun 10:18:00 PM 37.9167 117.0145 171° South  Level Estimated
Sun 10:19:00 PM 37.8398 117.0294 171° South  Level Estimated
Sun 10:20:00 PM 37.7629 117.0441 171° South  Level Estimated
Sun 10:21:00 PM 37.6860 117.0589 171° South  Level Estimated
Sun 10:22:00 PM 37.6091 117.0736 171° South  Level Estimated
Sun 10:23:00 PM 37.5322 117.0883 171° South  Level Estimated
Sun 10:24:00 PM 37.4552 117.1030 171° South  Level Estimated
Sun 10:25:00 PM 37.3783 117.1176 171° South  Level Estimated
Sun 10:26:00 PM 37.3014 117.1322 171° South  Level Estimated
Sun 10:27:00 PM 37.2245 117.1467 171° South  Level Estimated
Sun 10:28:00 PM 37.1475 117.1613 171° South  Level Estimated
Sun 10:29:00 PM 37.0706 117.1758 171° South  Level Estimated
Sun 10:30:00 PM 36.9937 117.1903 171° South  Level Estimated
Sun 10:31:00 PM 36.9167 117.2047 171° South  Level Estimated
Sun 10:32:00 PM 36.8566 117.2160 171° South  Level Estimated
Sun 10:33:00 PM 36.8566 117.2160 North  Level Estimated
Sun 10:34:00 PM 36.8566 117.2160 North  Level Estimated
Sun 10:35:00 PM 36.8566 117.2160 North  Level Estimated
Sun 10:36:00 PM 36.8566 117.2160 North  Level Estimated
Sun 10:37:00 PM 36.8566 117.2160 North  Level Estimated
Sun 10:38:00 PM 36.8566 117.2160 North  Level Estimated
Sun 10:39:00 PM 36.8566 117.2160 North  Level Estimated
Sun 10:40:00 PM 36.8566 117.2160 North  Level Estimated
Sun 10:41:00 PM 36.8566 117.2160 North  Level Estimated
Sun 10:42:00 PM 36.8566 117.2160 North  Level Estimated
Sun 10:43:00 PM 36.8566 117.2160 North  Level Estimated
Sun 10:44:00 PM 36.8566 117.2160 North  Level Estimated
Sun 10:45:00 PM 36.8566 117.2160 North  Level Estimated
Sun 10:46:00 PM 36.8566 117.2160 North  Level Estimated
Sun 10:47:00 PM 36.8566 117.2160 North  Level Estimated
Sun 10:48:00 PM 36.8566 117.2160 North  Level Estimated
Sun 10:49:00 PM 36.8566 117.2160 North  Level Estimated

Login

Don't have an account? Register now (free) for customized features, flight alerts, and more!